Time;durP1;ratioP1;P1;durP2;ratioP2;P2;SDS_P1;SDS_P2;PMS_P1;PMS_P2;Temp;Humidity;BMP_temperature;BMP_pressure;BME280_temperature;BME280_humidity;BME280_pressure;Samples;Min_cycle;Max_cycle;Signal;HPM_P1;HPM_P2
2022/03/28 00:02:23;;;;;;;;;;;6.10;99.90;;;;;;5095372;28;19917;-77
2022/03/28 00:04:49;;;;;;;;;;;6.10;99.90;;;;;;5096041;28;19908;-77
2022/03/28 00:07:14;;;;;;;;;;;6.00;99.90;;;;;;5096355;28;19909;-77
2022/03/28 00:09:40;;;;;;;;;;;6.00;99.90;;;;;;5095389;28;20254;-77
2022/03/28 00:12:06;;;;;;;;;;;6.00;99.90;;;;;;5095890;28;19962;-77
2022/03/28 00:14:31;;;;;;;;;;;6.10;99.90;;;;;;5095602;28;20293;-77
2022/03/28 00:16:57;;;;;;;;;;;6.00;99.90;;;;;;5095756;28;20379;-77
2022/03/28 00:19:23;;;;;;;;;;;6.00;99.90;;;;;;5095760;28;19912;-77
2022/03/28 00:21:48;;;;;;;;;;;6.00;99.90;;;;;;5095633;28;19962;-77
2022/03/28 00:24:14;;;;;;;;;;;6.00;99.90;;;;;;5094608;28;19919;-77
2022/03/28 00:26:39;;;;;;;;;;;6.00;99.90;;;;;;5095764;28;19908;-77
2022/03/28 00:29:05;;;;;;;;;;;6.00;99.90;;;;;;5095474;28;20002;-77
2022/03/28 00:31:31;;;;;;;;;;;5.90;99.90;;;;;;5095060;28;19958;-77
2022/03/28 00:33:56;;;;;;;;;;;5.90;99.90;;;;;;5095526;28;19940;-77
2022/03/28 00:36:22;;;;;;;;;;;5.90;99.90;;;;;;5095558;28;20373;-77
2022/03/28 00:38:49;;;;;;;;;;;5.80;99.90;;;;;;5095164;28;19908;-77
2022/03/28 00:41:15;;;;;;;;;;;5.80;99.90;;;;;;5094206;28;19915;-77
2022/03/28 00:43:45;;;;;;;;;;;5.70;99.90;;;;;;5095080;28;19912;-76
2022/03/28 00:46:10;;;;;;;;;;;5.70;99.90;;;;;;5095276;28;19954;-76
2022/03/28 00:48:38;;;;;;;;;;;5.70;99.90;;;;;;5094755;28;19908;-76
2022/03/28 00:51:04;;;;;;;;;;;5.70;99.90;;;;;;5095317;28;20292;-77
2022/03/28 00:53:29;;;;;;;;;;;5.70;99.90;;;;;;5095284;28;19908;-74
2022/03/28 00:55:55;;;;;;;;;;;5.60;99.90;;;;;;5099399;28;20005;-74
2022/03/28 00:58:21;;;;;;;;;;;5.60;99.90;;;;;;5094182;28;19924;-75
2022/03/28 01:00:47;;;;;;;;;;;5.60;99.90;;;;;;5093693;28;19929;-77
2022/03/28 01:03:12;;;;;;;;;;;5.60;99.90;;;;;;5093696;28;20011;-75
2022/03/28 01:05:38;;;;;;;;;;;5.60;99.90;;;;;;5093304;28;19908;-75
2022/03/28 01:08:04;;;;;;;;;;;5.60;99.90;;;;;;5093972;28;19907;-75
2022/03/28 01:10:30;;;;;;;;;;;5.60;99.90;;;;;;5092994;28;19908;-75
2022/03/28 01:12:55;;;;;;;;;;;5.50;99.90;;;;;;5093283;28;19909;-75
2022/03/28 01:15:21;;;;;;;;;;;5.40;99.90;;;;;;5094016;28;19930;-74
2022/03/28 01:20:32;;;;;;;;;;;5.30;99.90;;;;;;5093578;28;20404;-75
2022/03/28 01:22:57;;;;;;;;;;;5.40;99.90;;;;;;5093635;28;19923;-74
2022/03/28 01:25:24;;;;;;;;;;;5.30;99.90;;;;;;5094026;28;19912;-75
2022/03/28 01:27:53;;;;;;;;;;;5.20;99.90;;;;;;5093483;28;19938;-74
2022/03/28 01:30:22;;;;;;;;;;;5.30;99.90;;;;;;5093989;28;19914;-74
2022/03/28 01:32:48;;;;;;;;;;;5.30;99.90;;;;;;5093292;28;19969;-74
2022/03/28 01:35:24;;;;;;;;;;;5.30;99.90;;;;;;5093846;28;19909;-74
2022/03/28 01:37:49;;;;;;;;;;;5.30;99.90;;;;;;5093420;28;19908;-75
2022/03/28 01:40:15;;;;;;;;;;;5.30;99.90;;;;;;5093928;28;19909;-74
2022/03/28 01:42:40;;;;;;;;;;;5.30;99.90;;;;;;5093235;28;20018;-74
2022/03/28 01:45:06;;;;;;;;;;;5.30;99.90;;;;;;5093165;28;20357;-74
2022/03/28 01:47:32;;;;;;;;;;;5.20;99.90;;;;;;5092132;28;19923;-75
2022/03/28 01:49:57;;;;;;;;;;;5.30;99.90;;;;;;5094033;28;20322;-75
2022/03/28 01:52:23;;;;;;;;;;;5.30;99.90;;;;;;5093816;28;19908;-75
2022/03/28 01:54:49;;;;;;;;;;;5.20;99.90;;;;;;5093333;28;19964;-74
2022/03/28 01:57:14;;;;;;;;;;;5.20;99.90;;;;;;5015403;28;2210559;-74
2022/03/28 01:59:40;;;;;;;;;;;5.10;99.90;;;;;;5094239;28;20365;-74
2022/03/28 02:02:05;;;;;;;;;;;5.10;99.90;;;;;;5094543;28;20102;-74
2022/03/28 02:04:32;;;;;;;;;;;5.10;99.90;;;;;;5093845;28;19922;-74
2022/03/28 02:06:58;;;;;;;;;;;5.10;99.90;;;;;;5093367;28;20005;-74
2022/03/28 02:09:23;;;;;;;;;;;5.00;99.90;;;;;;5094162;28;20375;-74
2022/03/28 02:11:49;;;;;;;;;;;5.00;99.90;;;;;;5093521;28;19958;-74
2022/03/28 02:14:14;;;;;;;;;;;5.00;99.90;;;;;;5096800;28;19915;-74
2022/03/28 02:16:40;;;;;;;;;;;5.00;99.90;;;;;;5094296;28;19934;-74
2022/03/28 02:19:05;;;;;;;;;;;4.90;99.90;;;;;;5094396;28;19970;-74
2022/03/28 02:21:31;;;;;;;;;;;4.90;99.90;;;;;;5093611;28;19912;-75
2022/03/28 02:23:57;;;;;;;;;;;4.90;99.90;;;;;;5093331;28;20467;-74
2022/03/28 02:26:22;;;;;;;;;;;4.90;99.90;;;;;;5094242;28;19908;-75
2022/03/28 02:28:48;;;;;;;;;;;4.90;99.90;;;;;;5093494;28;20003;-74
2022/03/28 02:31:13;;;;;;;;;;;4.90;99.90;;;;;;5093810;28;20363;-74
2022/03/28 02:33:39;;;;;;;;;;;4.90;99.90;;;;;;5092758;28;19915;-74
2022/03/28 02:36:05;;;;;;;;;;;4.90;99.90;;;;;;5093555;28;20006;-75
2022/03/28 02:38:30;;;;;;;;;;;4.80;99.90;;;;;;5093974;28;20391;-75
2022/03/28 02:40:56;;;;;;;;;;;4.80;99.90;;;;;;5093527;28;19909;-75
2022/03/28 02:43:23;;;;;;;;;;;4.90;99.90;;;;;;5092063;28;20331;-75
2022/03/28 02:45:48;;;;;;;;;;;4.90;99.90;;;;;;5092991;28;19912;-75
2022/03/28 02:48:14;;;;;;;;;;;4.90;99.90;;;;;;5093530;28;19916;-75
2022/03/28 02:50:39;;;;;;;;;;;4.90;99.90;;;;;;5093253;28;19912;-75
2022/03/28 02:53:05;;;;;;;;;;;4.90;99.90;;;;;;5093942;28;20368;-75
2022/03/28 02:55:30;;;;;;;;;;;4.80;99.90;;;;;;5092580;28;19912;-74
2022/03/28 02:57:56;;;;;;;;;;;4.80;99.90;;;;;;5093080;28;20319;-75
2022/03/28 03:00:22;;;;;;;;;;;4.80;99.90;;;;;;5093695;28;19959;-75
2022/03/28 03:02:47;;;;;;;;;;;4.80;99.90;;;;;;5092934;28;20006;-75
2022/03/28 03:05:13;;;;;;;;;;;4.70;99.90;;;;;;5093143;28;19919;-75
2022/03/28 03:07:39;;;;;;;;;;;4.70;99.90;;;;;;5092675;28;19914;-75
2022/03/28 03:10:06;;;;;;;;;;;4.70;99.90;;;;;;5093473;28;20004;-74
2022/03/28 03:12:32;;;;;;;;;;;4.70;99.90;;;;;;5093297;28;19938;-75
2022/03/28 03:14:57;;;;;;;;;;;4.60;99.90;;;;;;5092713;28;20365;-75
2022/03/28 03:17:23;;;;;;;;;;;4.60;99.90;;;;;;5091794;28;19908;-74
2022/03/28 03:19:49;;;;;;;;;;;4.60;99.90;;;;;;5092396;28;19953;-75
2022/03/28 03:22:15;;;;;;;;;;;4.60;99.90;;;;;;5093004;28;19912;-75
2022/03/28 03:24:40;;;;;;;;;;;4.60;99.90;;;;;;5092577;28;20361;-75
2022/03/28 03:27:06;;;;;;;;;;;4.50;99.90;;;;;;5093137;28;19946;-74
2022/03/28 03:29:32;;;;;;;;;;;4.50;99.90;;;;;;5093211;28;20006;-74
2022/03/28 03:31:58;;;;;;;;;;;4.50;99.90;;;;;;5096017;28;19919;-74
2022/03/28 03:34:23;;;;;;;;;;;4.50;99.90;;;;;;5092759;28;19908;-75
2022/03/28 03:36:49;;;;;;;;;;;4.50;99.90;;;;;;5092082;28;19915;-74
2022/03/28 03:39:14;;;;;;;;;;;4.40;99.90;;;;;;5093092;28;20407;-74
2022/03/28 03:41:40;;;;;;;;;;;4.40;99.90;;;;;;5092205;28;20007;-74
2022/03/28 03:44:06;;;;;;;;;;;4.30;99.90;;;;;;5092618;28;19919;-74
2022/03/28 03:46:32;;;;;;;;;;;4.20;99.90;;;;;;5091378;28;19922;-74
2022/03/28 03:48:57;;;;;;;;;;;4.20;99.90;;;;;;5092005;28;20492;-74
2022/03/28 03:51:23;;;;;;;;;;;4.20;99.90;;;;;;5092838;28;19908;-74
2022/03/28 03:53:48;;;;;;;;;;;4.30;99.90;;;;;;5092108;28;19930;-75
2022/03/28 03:56:14;;;;;;;;;;;4.30;99.90;;;;;;5092464;28;19908;-74
2022/03/28 03:58:40;;;;;;;;;;;4.30;99.90;;;;;;5092322;28;19908;-75
2022/03/28 04:01:07;;;;;;;;;;;4.20;99.90;;;;;;5092690;28;19912;-74
2022/03/28 04:03:33;;;;;;;;;;;4.10;99.90;;;;;;5092585;28;20371;-74
2022/03/28 04:05:59;;;;;;;;;;;4.10;99.90;;;;;;5091670;28;19997;-75
2022/03/28 04:08:26;;;;;;;;;;;4.10;99.90;;;;;;5092359;28;19950;-75
2022/03/28 04:10:51;;;;;;;;;;;4.10;99.90;;;;;;5091792;28;19919;-75
2022/03/28 04:13:18;;;;;;;;;;;4.10;99.90;;;;;;5092103;28;19908;-75
2022/03/28 04:15:44;;;;;;;;;;;4.10;99.90;;;;;;5092027;28;19963;-74
2022/03/28 04:18:09;;;;;;;;;;;4.00;99.90;;;;;;5092204;28;19944;-74
2022/03/28 04:20:35;;;;;;;;;;;4.00;99.90;;;;;;5092228;28;20351;-74
2022/03/28 04:23:01;;;;;;;;;;;4.00;99.90;;;;;;5090247;28;19916;-74
2022/03/28 04:25:26;;;;;;;;;;;4.10;99.90;;;;;;5092918;28;19912;-75
2022/03/28 04:27:52;;;;;;;;;;;4.10;99.90;;;;;;5091874;28;19916;-74
2022/03/28 04:30:18;;;;;;;;;;;4.20;99.90;;;;;;5092325;28;19915;-75
2022/03/28 04:32:43;;;;;;;;;;;4.10;99.90;;;;;;5091674;28;20353;-75
2022/03/28 04:35:10;;;;;;;;;;;4.10;99.90;;;;;;5092096;28;19909;-75
2022/03/28 04:37:36;;;;;;;;;;;4.10;99.90;;;;;;5091722;28;20003;-74
2022/03/28 04:40:03;;;;;;;;;;;4.20;99.90;;;;;;5091256;28;20360;-75
2022/03/28 04:42:28;;;;;;;;;;;4.20;99.90;;;;;;5091654;28;19951;-75
2022/03/28 04:44:54;;;;;;;;;;;4.20;99.90;;;;;;5091810;28;19927;-75
2022/03/28 04:47:20;;;;;;;;;;;4.20;99.90;;;;;;5095411;28;19955;-75
2022/03/28 04:49:45;;;;;;;;;;;4.20;99.90;;;;;;5095053;28;19908;-75
2022/03/28 04:52:11;;;;;;;;;;;4.20;99.90;;;;;;5095741;28;20007;-75
2022/03/28 04:54:36;;;;;;;;;;;4.20;99.90;;;;;;5095535;28;19908;-75
2022/03/28 04:57:05;;;;;;;;;;;4.30;99.90;;;;;;5095188;28;19960;-74
2022/03/28 04:59:31;;;;;;;;;;;4.30;99.90;;;;;;5095511;28;19919;-75
2022/03/28 05:01:57;;;;;;;;;;;4.30;99.90;;;;;;5094963;28;19957;-74
2022/03/28 05:04:23;;;;;;;;;;;4.30;99.90;;;;;;5095557;28;19916;-75
2022/03/28 05:06:48;;;;;;;;;;;4.30;99.90;;;;;;5094525;28;19908;-74
2022/03/28 05:09:14;;;;;;;;;;;4.40;99.90;;;;;;5095004;28;19908;-75
2022/03/28 05:11:40;;;;;;;;;;;4.40;99.90;;;;;;5095226;28;19908;-75
2022/03/28 05:14:05;;;;;;;;;;;4.40;99.90;;;;;;5094642;28;19962;-75
2022/03/28 05:16:31;;;;;;;;;;;4.40;99.90;;;;;;5094063;28;19912;-74
2022/03/28 05:18:56;;;;;;;;;;;4.30;99.90;;;;;;5095184;28;19915;-76
2022/03/28 05:21:22;;;;;;;;;;;4.30;99.90;;;;;;5093748;28;19909;-75
2022/03/28 05:23:48;;;;;;;;;;;4.30;99.90;;;;;;5094652;28;19927;-75
2022/03/28 05:26:13;;;;;;;;;;;4.20;99.90;;;;;;5093709;28;20474;-75
2022/03/28 05:28:39;;;;;;;;;;;4.20;99.90;;;;;;5092593;28;19908;-75
2022/03/28 05:31:04;;;;;;;;;;;4.20;99.90;;;;;;5094261;28;20336;-75
2022/03/28 05:33:30;;;;;;;;;;;4.20;99.90;;;;;;5095700;28;19915;-74
2022/03/28 05:35:56;;;;;;;;;;;4.20;99.90;;;;;;5094539;28;19909;-74
2022/03/28 05:38:22;;;;;;;;;;;4.20;99.90;;;;;;5094586;28;19912;-75
2022/03/28 05:40:47;;;;;;;;;;;4.10;99.90;;;;;;5094490;28;19977;-74
2022/03/28 05:43:13;;;;;;;;;;;4.20;99.90;;;;;;5094852;28;19939;-75
2022/03/28 05:45:38;;;;;;;;;;;4.10;99.90;;;;;;5094671;28;19963;-75
2022/03/28 05:48:04;;;;;;;;;;;4.10;99.90;;;;;;5093911;28;19908;-75
2022/03/28 05:50:30;;;;;;;;;;;4.10;99.90;;;;;;5094402;28;19926;-74
2022/03/28 05:52:55;;;;;;;;;;;4.20;99.90;;;;;;5094071;28;19953;-74
2022/03/28 05:55:21;;;;;;;;;;;4.20;99.90;;;;;;5094732;28;19912;-74
2022/03/28 05:57:47;;;;;;;;;;;4.30;99.90;;;;;;5092960;28;19959;-74
2022/03/28 06:00:14;;;;;;;;;;;4.30;99.90;;;;;;5094713;28;19908;-75
2022/03/28 06:02:40;;;;;;;;;;;4.20;99.90;;;;;;5094146;28;19935;-75
2022/03/28 06:05:06;;;;;;;;;;;4.20;99.90;;;;;;5093935;28;19912;-75
2022/03/28 06:07:32;;;;;;;;;;;4.20;99.90;;;;;;5094025;28;19915;-75
2022/03/28 06:09:58;;;;;;;;;;;4.20;99.90;;;;;;5093593;28;19908;-75
2022/03/28 06:12:23;;;;;;;;;;;4.30;99.90;;;;;;5094036;28;19953;-75
2022/03/28 06:14:49;;;;;;;;;;;4.30;99.90;;;;;;5093571;28;19908;-75
2022/03/28 06:17:25;;;;;;;;;;;4.30;99.90;;;;;;5093848;28;20326;-75
2022/03/28 06:19:50;;;;;;;;;;;4.40;99.90;;;;;;5093859;28;19908;-75
2022/03/28 06:22:16;;;;;;;;;;;4.50;99.90;;;;;;5093700;28;20272;-75
2022/03/28 06:24:42;;;;;;;;;;;4.50;99.90;;;;;;5093823;28;19912;-74
2022/03/28 06:27:07;;;;;;;;;;;4.50;99.90;;;;;;5093136;28;20503;-75
2022/03/28 06:29:33;;;;;;;;;;;4.60;99.90;;;;;;5093910;28;19912;-76
2022/03/28 06:31:58;;;;;;;;;;;4.60;99.90;;;;;;5093296;28;20002;-74
2022/03/28 06:34:24;;;;;;;;;;;4.50;99.90;;;;;;5093998;28;19957;-74
2022/03/28 06:36:50;;;;;;;;;;;4.50;99.90;;;;;;5092284;28;19916;-75
2022/03/28 06:39:16;;;;;;;;;;;4.60;99.90;;;;;;5093358;28;19908;-75
2022/03/28 06:41:41;;;;;;;;;;;4.60;99.90;;;;;;5092277;28;20002;-75
2022/03/28 06:44:13;;;;;;;;;;;4.60;99.90;;;;;;5094323;28;19916;-75
2022/03/28 06:46:40;;;;;;;;;;;4.60;99.90;;;;;;5092462;28;19915;-75
2022/03/28 06:49:06;;;;;;;;;;;4.60;99.90;;;;;;5092168;28;19908;-75
2022/03/28 06:51:32;;;;;;;;;;;4.60;99.90;;;;;;5093464;28;19919;-74
2022/03/28 06:53:58;;;;;;;;;;;4.70;99.90;;;;;;5091686;28;19908;-74
2022/03/28 06:56:24;;;;;;;;;;;4.80;99.90;;;;;;5093297;28;19908;-75
2022/03/28 06:58:50;;;;;;;;;;;4.90;99.90;;;;;;5093412;28;20365;-74
2022/03/28 07:01:15;;;;;;;;;;;5.00;99.90;;;;;;5092844;28;19919;-74
2022/03/28 07:03:41;;;;;;;;;;;5.10;99.90;;;;;;5092865;28;20365;-74
2022/03/28 07:06:07;;;;;;;;;;;5.20;99.90;;;;;;5092952;28;19966;-74
2022/03/28 07:08:33;;;;;;;;;;;5.30;99.90;;;;;;5092538;28;19908;-75
2022/03/28 07:10:59;;;;;;;;;;;5.30;99.90;;;;;;5092329;28;19912;-75
2022/03/28 07:13:24;;;;;;;;;;;5.30;99.90;;;;;;5092694;28;19908;-74
2022/03/28 07:15:50;;;;;;;;;;;5.30;99.90;;;;;;5092557;28;19908;-75
2022/03/28 07:18:16;;;;;;;;;;;5.40;99.90;;;;;;5093071;28;19915;-76
2022/03/28 07:20:43;;;;;;;;;;;5.50;99.90;;;;;;5092915;28;20323;-76
2022/03/28 07:23:09;;;;;;;;;;;5.50;99.90;;;;;;5092178;28;20384;-76
2022/03/28 07:25:36;;;;;;;;;;;5.50;99.90;;;;;;5093423;28;20003;-75
2022/03/28 07:28:09;;;;;;;;;;;5.50;99.90;;;;;;5092133;28;20373;-76
2022/03/28 07:30:35;;;;;;;;;;;5.50;99.90;;;;;;5092199;28;20013;-75
2022/03/28 07:33:02;;;;;;;;;;;5.50;99.90;;;;;;5089880;28;19908;-75
2022/03/28 07:35:28;;;;;;;;;;;5.50;99.90;;;;;;5095483;28;19908;-75
2022/03/28 07:37:54;;;;;;;;;;;5.50;99.90;;;;;;5110783;28;19907;-75
2022/03/28 07:40:20;;;;;;;;;;;5.50;99.90;;;;;;5113178;28;20371;-75
2022/03/28 07:42:46;;;;;;;;;;;5.70;99.90;;;;;;5113051;28;20371;-76
2022/03/28 07:45:14;;;;;;;;;;;5.80;99.90;;;;;;5112278;28;19912;-76
2022/03/28 07:47:40;;;;;;;;;;;5.80;99.90;;;;;;5112950;28;19908;-76
2022/03/28 07:50:06;;;;;;;;;;;5.90;99.90;;;;;;5111033;28;19912;-76
2022/03/28 07:52:32;;;;;;;;;;;6.00;99.90;;;;;;5113040;28;20274;-76
2022/03/28 07:54:58;;;;;;;;;;;6.20;99.90;;;;;;5090604;28;20292;-76
2022/03/28 07:57:24;;;;;;;;;;;6.30;99.90;;;;;;5092066;28;19920;-76
2022/03/28 07:59:49;;;;;;;;;;;6.40;99.90;;;;;;5092191;28;19985;-75
2022/03/28 08:02:15;;;;;;;;;;;6.60;99.90;;;;;;5091658;28;19923;-75
2022/03/28 08:04:43;;;;;;;;;;;6.60;99.90;;;;;;5092745;28;19916;-75
2022/03/28 08:07:10;;;;;;;;;;;6.60;99.90;;;;;;5091807;28;19915;-76
2022/03/28 08:09:36;;;;;;;;;;;6.50;99.90;;;;;;5092464;28;19973;-75
2022/03/28 08:12:02;;;;;;;;;;;6.60;99.90;;;;;;5091888;28;19966;-75
2022/03/28 08:14:28;;;;;;;;;;;6.70;99.90;;;;;;5091970;28;20007;-76
2022/03/28 08:16:53;;;;;;;;;;;6.70;99.90;;;;;;5091788;28;20042;-76
2022/03/28 08:19:19;;;;;;;;;;;6.80;99.90;;;;;;5091390;28;19908;-75
2022/03/28 08:21:45;;;;;;;;;;;6.80;99.90;;;;;;5094703;28;20461;-76
2022/03/28 08:24:10;;;;;;;;;;;6.90;99.90;;;;;;5095555;28;19923;-76
2022/03/28 08:26:36;;;;;;;;;;;7.00;99.90;;;;;;5095990;28;19912;-76
2022/03/28 08:29:03;;;;;;;;;;;7.10;99.90;;;;;;5095758;28;19908;-76
2022/03/28 08:31:29;;;;;;;;;;;7.20;99.90;;;;;;5096173;28;19908;-76
2022/03/28 08:33:55;;;;;;;;;;;7.40;99.90;;;;;;5095645;28;19908;-76
2022/03/28 08:36:20;;;;;;;;;;;7.50;99.90;;;;;;5095447;28;19998;-76
2022/03/28 08:38:46;;;;;;;;;;;7.60;99.90;;;;;;5093765;28;19957;-76
2022/03/28 08:41:14;;;;;;;;;;;7.60;99.90;;;;;;5093949;28;19908;-76
2022/03/28 08:43:40;;;;;;;;;;;7.70;99.90;;;;;;5095689;28;19913;-76
2022/03/28 08:46:08;;;;;;;;;;;7.80;99.90;;;;;;5095557;28;19966;-77
2022/03/28 08:48:35;;;;;;;;;;;7.90;99.90;;;;;;5095730;28;19951;-76
2022/03/28 08:51:01;;;;;;;;;;;8.00;99.90;;;;;;5094733;28;19908;-76
2022/03/28 08:53:27;;;;;;;;;;;8.10;99.90;;;;;;5094432;28;19930;-75
2022/03/28 08:55:52;;;;;;;;;;;8.20;99.90;;;;;;5096476;28;20376;-76
2022/03/28 08:58:18;;;;;;;;;;;8.30;99.90;;;;;;5095135;28;19928;-75
2022/03/28 09:00:44;;;;;;;;;;;8.40;99.90;;;;;;5096009;28;19908;-75
2022/03/28 09:03:09;;;;;;;;;;;8.50;99.90;;;;;;5094947;28;20002;-76
2022/03/28 09:05:36;;;;;;;;;;;8.70;99.90;;;;;;5092643;28;19920;-75
2022/03/28 09:08:02;;;;;;;;;;;8.80;99.90;;;;;;5095010;28;19916;-75
2022/03/28 09:10:29;;;;;;;;;;;9.00;99.90;;;;;;5094700;28;20003;-75
2022/03/28 09:13:02;;;;;;;;;;;9.20;99.90;;;;;;5095072;28;19912;-75
2022/03/28 09:15:57;;;;;;;;;;;9.40;99.90;;;;;;5094521;28;20019;-76
2022/03/28 09:18:29;;;;;;;;;;;9.50;99.90;;;;;;5085257;28;19915;-75
2022/03/28 09:20:59;;;;;;;;;;;9.60;99.90;;;;;;5094339;28;20281;-75
2022/03/28 09:23:25;;;;;;;;;;;9.70;99.90;;;;;;5094487;28;19924;-76
2022/03/28 09:25:51;;;;;;;;;;;9.90;99.90;;;;;;5094513;28;20376;-76
2022/03/28 09:28:23;;;;;;;;;;;10.10;99.90;;;;;;5094083;28;19995;-75
2022/03/28 09:30:49;;;;;;;;;;;10.20;99.90;;;;;;5094446;28;19930;-76
2022/03/28 09:33:17;;;;;;;;;;;10.30;99.90;;;;;;5093558;28;20401;-75
2022/03/28 09:35:46;;;;;;;;;;;10.40;99.90;;;;;;5094212;28;19908;-75
2022/03/28 09:38:13;;;;;;;;;;;10.60;99.90;;;;;;5092834;28;19919;-75
2022/03/28 09:40:39;;;;;;;;;;;10.70;99.90;;;;;;5094334;28;19908;-75
2022/03/28 09:43:06;;;;;;;;;;;10.90;99.90;;;;;;5093760;28;19922;-76
2022/03/28 09:45:38;;;;;;;;;;;11.10;99.90;;;;;;5094133;28;19919;-76
2022/03/28 09:48:08;;;;;;;;;;;11.10;99.90;;;;;;5093559;28;19961;-76
2022/03/28 09:50:38;;;;;;;;;;;11.30;99.90;;;;;;5094516;28;19925;-76
2022/03/28 09:53:13;;;;;;;;;;;11.40;99.90;;;;;;5093859;28;20338;-76
2022/03/28 09:55:52;;;;;;;;;;;11.50;99.90;;;;;;5093448;28;19919;-75
2022/03/28 09:58:35;;;;;;;;;;;11.60;99.90;;;;;;5094618;28;19930;-75
2022/03/28 10:01:01;;;;;;;;;;;11.50;99.90;;;;;;5094051;28;20333;-76
2022/03/28 10:03:32;;;;;;;;;;;11.60;99.90;;;;;;5094084;28;19916;-76
2022/03/28 10:05:59;;;;;;;;;;;11.80;99.90;;;;;;5093922;28;20376;-76
2022/03/28 10:08:26;;;;;;;;;;;11.90;99.90;;;;;;5093932;28;19908;-76
2022/03/28 10:10:52;;;;;;;;;;;12.00;99.90;;;;;;5094956;28;20315;-74
2022/03/28 10:13:18;;;;;;;;;;;12.00;99.90;;;;;;5095043;28;19957;-75
2022/03/28 10:15:44;;;;;;;;;;;12.10;99.90;;;;;;5093848;28;19957;-76
2022/03/28 10:18:09;;;;;;;;;;;12.20;99.90;;;;;;5093158;28;19912;-77
2022/03/28 10:20:36;;;;;;;;;;;12.30;99.90;;;;;;5093819;28;19998;-76
2022/03/28 10:23:02;;;;;;;;;;;12.50;99.90;;;;;;5093515;28;19939;-76
2022/03/28 10:25:28;;;;;;;;;;;12.60;99.90;;;;;;5093775;28;19958;-75
2022/03/28 10:27:54;;;;;;;;;;;12.70;99.90;;;;;;5093876;28;19908;-76
2022/03/28 10:30:21;;;;;;;;;;;12.70;99.90;;;;;;5096664;28;19919;-75
2022/03/28 10:32:47;;;;;;;;;;;12.80;99.90;;;;;;5093625;28;19912;-76
2022/03/28 10:35:13;;;;;;;;;;;12.80;99.90;;;;;;5092849;28;19961;-76
2022/03/28 10:37:50;;;;;;;;;;;12.70;99.90;;;;;;5094029;28;19968;-76
2022/03/28 10:40:15;;;;;;;;;;;12.80;99.90;;;;;;5092869;28;19908;-76
2022/03/28 10:43:11;;;;;;;;;;;12.80;99.90;;;;;;5092843;28;20271;-76
2022/03/28 10:45:40;;;;;;;;;;;12.80;99.90;;;;;;5084284;28;19923;-76
2022/03/28 10:48:06;;;;;;;;;;;12.90;99.90;;;;;;5094167;28;19915;-76
2022/03/28 10:50:34;;;;;;;;;;;13.00;99.90;;;;;;5097472;28;19919;-76
2022/03/28 10:53:08;;;;;;;;;;;13.00;99.90;;;;;;5093405;28;20112;-76
2022/03/28 10:55:37;;;;;;;;;;;13.20;99.90;;;;;;5093135;28;19912;-76
2022/03/28 10:58:13;;;;;;;;;;;13.20;99.90;;;;;;5092858;28;20276;-74
2022/03/28 11:00:59;;;;;;;;;;;13.20;99.90;;;;;;5093126;28;19915;-74
2022/03/28 11:03:34;;;;;;;;;;;13.40;99.90;;;;;;5091390;28;20282;-75
2022/03/28 11:06:00;;;;;;;;;;;13.40;99.90;;;;;;5092597;28;19915;-75
2022/03/28 11:08:33;;;;;;;;;;;13.40;99.90;;;;;;5092449;28;19908;-75
2022/03/28 11:11:15;;;;;;;;;;;13.40;99.90;;;;;;5091244;28;19908;-75
2022/03/28 11:13:41;;;;;;;;;;;13.40;99.90;;;;;;5091541;28;19908;-75
2022/03/28 11:16:16;;;;;;;;;;;13.40;99.90;;;;;;5092393;28;19923;-75
2022/03/28 11:18:42;;;;;;;;;;;13.40;99.90;;;;;;5092575;28;20353;-75
2022/03/28 11:21:10;;;;;;;;;;;13.40;99.90;;;;;;5092599;28;19908;-75
2022/03/28 11:23:42;;;;;;;;;;;13.50;99.90;;;;;;5092747;28;20018;-75
2022/03/28 11:26:08;;;;;;;;;;;13.50;99.90;;;;;;5092422;28;19919;-77
2022/03/28 11:28:38;;;;;;;;;;;13.60;99.90;;;;;;5091125;28;19908;-74
2022/03/28 11:31:06;;;;;;;;;;;13.60;99.90;;;;;;5092078;28;20314;-76
2022/03/28 11:33:34;;;;;;;;;;;13.90;99.90;;;;;;5092644;28;19916;-75
2022/03/28 11:36:04;;;;;;;;;;;13.80;99.90;;;;;;5091574;28;20365;-75
2022/03/28 11:38:32;;;;;;;;;;;13.90;99.90;;;;;;5092505;28;19915;-75
2022/03/28 11:40:58;;;;;;;;;;;14.00;99.90;;;;;;5092711;28;19931;-75
2022/03/28 11:43:27;;;;;;;;;;;14.00;99.90;;;;;;5091735;28;20655;-75
2022/03/28 11:45:54;;;;;;;;;;;13.90;99.90;;;;;;5092405;28;20297;-75
2022/03/28 11:48:20;;;;;;;;;;;13.80;99.90;;;;;;5091851;28;19908;-75
2022/03/28 11:50:47;;;;;;;;;;;13.80;99.90;;;;;;5092483;28;19916;-75
2022/03/28 11:53:13;;;;;;;;;;;13.80;99.90;;;;;;5091894;28;19962;-75
2022/03/28 11:55:45;;;;;;;;;;;14.00;99.90;;;;;;5095162;28;19908;-75
2022/03/28 11:58:19;;;;;;;;;;;14.20;99.90;;;;;;5096325;28;20407;-75
2022/03/28 12:00:46;;;;;;;;;;;14.20;99.90;;;;;;5096725;28;20365;-75
2022/03/28 12:03:12;;;;;;;;;;;14.30;99.90;;;;;;5095969;28;19916;-75
2022/03/28 12:05:39;;;;;;;;;;;14.40;99.90;;;;;;5096779;28;19912;-75
2022/03/28 12:08:23;;;;;;;;;;;14.50;99.90;;;;;;5096291;28;19914;-76
2022/03/28 12:10:49;;;;;;;;;;;14.70;99.90;;;;;;5096667;28;19915;-75
2022/03/28 12:13:15;;;;;;;;;;;14.90;99.90;;;;;;5095767;28;19908;-76
2022/03/28 12:15:48;;;;;;;;;;;15.00;99.90;;;;;;5096320;28;19912;-75
2022/03/28 12:18:14;;;;;;;;;;;14.90;99.90;;;;;;5095873;28;19912;-74
2022/03/28 12:20:42;;;;;;;;;;;14.90;99.90;;;;;;5096435;28;19999;-75
2022/03/28 12:23:08;;;;;;;;;;;15.00;99.90;;;;;;5095491;28;19977;-75
2022/03/28 12:25:36;;;;;;;;;;;15.00;99.90;;;;;;5096248;28;20413;-75
2022/03/28 12:28:03;;;;;;;;;;;15.10;99.90;;;;;;5096217;28;20276;-75
2022/03/28 12:30:30;;;;;;;;;;;15.10;99.90;;;;;;5094652;28;19939;-75
2022/03/28 12:32:56;;;;;;;;;;;15.00;99.90;;;;;;5095328;28;19940;-75
2022/03/28 12:35:22;;;;;;;;;;;14.80;99.90;;;;;;5095207;28;19908;-75
2022/03/28 12:37:59;;;;;;;;;;;14.70;99.90;;;;;;5094732;28;19908;-75
2022/03/28 12:40:28;;;;;;;;;;;14.70;99.90;;;;;;5095104;28;19973;-75
2022/03/28 12:42:55;;;;;;;;;;;14.80;99.90;;;;;;5095873;28;20249;-75
2022/03/28 12:45:24;;;;;;;;;;;15.00;99.90;;;;;;5094950;28;19982;-75
2022/03/28 12:48:15;;;;;;;;;;;15.10;99.90;;;;;;5096034;28;19912;-75
2022/03/28 12:50:50;;;;;;;;;;;15.10;99.90;;;;;;5090522;28;19912;-75
2022/03/28 12:53:16;;;;;;;;;;;15.20;99.90;;;;;;5095108;28;19908;-75
2022/03/28 12:55:43;;;;;;;;;;;15.30;99.90;;;;;;5095383;28;19915;-75
2022/03/28 12:58:10;;;;;;;;;;;15.30;99.90;;;;;;5095700;28;19924;-75
2022/03/28 13:00:36;;;;;;;;;;;15.30;99.90;;;;;;5095425;28;19908;-75
2022/03/28 13:03:02;;;;;;;;;;;15.40;99.90;;;;;;5095326;28;20349;-75
2022/03/28 13:05:29;;;;;;;;;;;15.30;99.90;;;;;;5094772;28;20050;-75
2022/03/28 13:08:16;;;;;;;;;;;15.30;99.90;;;;;;5094898;28;19914;-75
2022/03/28 13:10:42;;;;;;;;;;;15.20;99.90;;;;;;5094855;28;19912;-75
2022/03/28 13:13:08;;;;;;;;;;;15.20;99.90;;;;;;5094114;28;19916;-75
2022/03/28 13:15:35;;;;;;;;;;;15.30;99.90;;;;;;5094991;28;19915;-75
2022/03/28 13:18:05;;;;;;;;;;;15.30;99.90;;;;;;5095222;28;19908;-75
2022/03/28 13:20:31;;;;;;;;;;;15.40;99.90;;;;;;5095017;28;19954;-75
2022/03/28 13:22:58;;;;;;;;;;;15.40;99.90;;;;;;5095094;28;19916;-75
2022/03/28 13:25:24;;;;;;;;;;;15.30;99.90;;;;;;5094474;28;19938;-75
2022/03/28 13:28:02;;;;;;;;;;;15.30;99.90;;;;;;5095107;28;20003;-75
2022/03/28 13:30:41;;;;;;;;;;;15.40;99.90;;;;;;5094190;28;19912;-75
2022/03/28 13:33:07;;;;;;;;;;;15.30;99.90;;;;;;5094803;28;19912;-75
2022/03/28 13:35:33;;;;;;;;;;;15.30;99.90;;;;;;5094817;28;19950;-75
2022/03/28 13:38:03;;;;;;;;;;;15.40;99.90;;;;;;5095994;28;20365;-75
2022/03/28 13:40:30;;;;;;;;;;;15.50;99.90;;;;;;5095382;28;20368;-75
2022/03/28 13:42:59;;;;;;;;;;;15.70;99.90;;;;;;5094748;28;19982;-75
2022/03/28 13:45:25;;;;;;;;;;;15.70;99.90;;;;;;5094031;28;20654;-75
2022/03/28 13:47:51;;;;;;;;;;;15.70;99.90;;;;;;5094606;28;20430;-75
2022/03/28 13:50:18;;;;;;;;;;;15.60;99.90;;;;;;5093713;28;19995;-76
2022/03/28 13:52:44;;;;;;;;;;;15.60;99.90;;;;;;5094830;28;19912;-75
2022/03/28 13:55:10;;;;;;;;;;;15.50;99.90;;;;;;5094057;28;20060;-75
2022/03/28 13:57:35;;;;;;;;;;;15.50;99.90;;;;;;5093752;28;20401;-75
2022/03/28 14:00:02;;;;;;;;;;;15.50;99.90;;;;;;5094401;28;19919;-75
2022/03/28 14:02:28;;;;;;;;;;;15.60;99.90;;;;;;5093612;28;19912;-75
2022/03/28 14:04:53;;;;;;;;;;;15.60;99.90;;;;;;5092930;28;20483;-75
2022/03/28 14:07:19;;;;;;;;;;;15.60;99.90;;;;;;5093545;28;20318;-75
2022/03/28 14:09:45;;;;;;;;;;;15.60;99.90;;;;;;5093914;28;19915;-75
2022/03/28 14:12:10;;;;;;;;;;;15.60;99.90;;;;;;5092548;28;19915;-75
2022/03/28 14:14:36;;;;;;;;;;;15.60;99.90;;;;;;5093851;28;19908;-75
2022/03/28 14:17:02;;;;;;;;;;;15.60;99.90;;;;;;5093728;28;19916;-75
2022/03/28 14:19:29;;;;;;;;;;;15.60;99.90;;;;;;5091632;28;20577;-76
2022/03/28 14:21:55;;;;;;;;;;;15.60;99.90;;;;;;5093585;28;19912;-75
2022/03/28 14:24:21;;;;;;;;;;;15.70;99.90;;;;;;5092801;28;19962;-75
2022/03/28 14:26:46;;;;;;;;;;;15.70;99.90;;;;;;5094075;28;19955;-76
2022/03/28 14:29:12;;;;;;;;;;;15.60;99.90;;;;;;5092853;28;19959;-75